Time;durP1;ratioP1;P1;durP2;ratioP2;P2;SDS_P1;SDS_P2;PMS_P1;PMS_P2;Temp;Humidity;BMP_temperature;BMP_pressure;BME280_temperature;BME280_humidity;BME280_pressure;Samples;Min_cycle;Max_cycle;Signal;HPM_P1;HPM_P2
2021/05/18 00:00:06;;;;;;;25.90;23.60;;;;;;;;;;4962553;29;20445;-94
2021/05/18 00:02:33;;;;;;;26.17;24.07;;;;;;;;;;4963203;29;20417;-94
2021/05/18 00:05:00;;;;;;;24.37;21.90;;;;;;;;;;4962946;29;20462;-94
2021/05/18 00:07:27;;;;;;;25.00;23.03;;;;;;;;;;4962308;29;20428;-92
2021/05/18 00:12:40;;;;;;;24.47;22.50;;;;;;;;;;4947760;29;20553;-93
2021/05/18 00:15:09;;;;;;;27.27;24.77;;;;;;;;;;4963299;29;21019;-94
2021/05/18 00:17:36;;;;;;;26.20;24.10;;;;;;;;;;4963094;29;20495;-94
2021/05/18 00:20:04;;;;;;;27.53;24.73;;;;;;;;;;4963483;29;20425;-94
2021/05/18 00:22:32;;;;;;;27.40;24.67;;;;;;;;;;4963395;29;20443;-94
2021/05/18 00:24:59;;;;;;;28.33;25.60;;;;;;;;;;4962191;29;20437;-94
2021/05/18 00:27:29;;;;;;;26.50;24.20;;;;;;;;;;4960741;29;20421;-95
2021/05/18 00:29:57;;;;;;;28.07;25.23;;;;;;;;;;4960289;29;20484;-94
2021/05/18 00:32:24;;;;;;;25.50;23.43;;;;;;;;;;4960451;29;20423;-94
2021/05/18 00:34:54;;;;;;;26.57;24.37;;;;;;;;;;4945071;29;20490;-94
2021/05/18 00:37:22;;;;;;;27.27;24.57;;;;;;;;;;4959816;29;20437;-95
2021/05/18 00:39:49;;;;;;;27.97;25.37;;;;;;;;;;4942491;29;20530;-94
2021/05/18 00:42:16;;;;;;;27.03;23.83;;;;;;;;;;4960013;29;20905;-93
2021/05/18 00:44:44;;;;;;;28.03;25.53;;;;;;;;;;4944355;29;20443;-94
2021/05/18 00:47:13;;;;;;;28.00;25.10;;;;;;;;;;4963104;29;20429;-94
2021/05/18 00:49:40;;;;;;;29.10;26.10;;;;;;;;;;4962296;29;20454;-95
2021/05/18 00:52:07;;;;;;;27.80;25.20;;;;;;;;;;4962407;29;20439;-96
2021/05/18 00:54:39;;;;;;;25.67;23.63;;;;;;;;;;4962903;29;20454;-95
2021/05/18 00:59:53;;;;;;;26.97;24.37;;;;;;;;;;4961727;28;20428;-95
2021/05/18 01:02:21;;;;;;;27.30;24.60;;;;;;;;;;4971124;28;20474;-94
2021/05/18 01:04:48;;;;;;;26.70;24.10;;;;;;;;;;4970487;29;20502;-95
2021/05/18 01:07:15;;;;;;;25.83;23.83;;;;;;;;;;4974165;28;20426;-92
2021/05/18 01:09:42;;;;;;;23.60;21.80;;;;;;;;;;4964047;29;20421;-93
2021/05/18 01:12:09;;;;;;;25.70;23.20;;;;;;;;;;4959750;28;20453;-94
2021/05/18 01:14:36;;;;;;;26.53;24.17;;;;;;;;;;4959888;29;20937;-94
2021/05/18 01:17:04;;;;;;;26.07;23.97;;;;;;;;;;4941987;29;20453;-95
2021/05/18 01:19:32;;;;;;;31.23;27.70;;;;;;;;;;4943026;29;20763;-94
2021/05/18 01:22:02;;;;;;;25.53;23.37;;;;;;;;;;4960193;29;20414;-95
2021/05/18 01:24:29;;;;;;;27.10;24.37;;;;;;;;;;4959272;29;20469;-94
2021/05/18 01:26:56;;;;;;;27.50;24.70;;;;;;;;;;4959539;29;20451;-94
2021/05/18 01:29:23;;;;;;;26.00;23.73;;;;;;;;;;4959418;29;20790;-94
2021/05/18 01:31:51;;;;;;;26.63;24.03;;;;;;;;;;4959071;29;20504;-94
2021/05/18 01:34:18;;;;;;;27.43;25.00;;;;;;;;;;4942799;29;20849;-94
2021/05/18 01:36:46;;;;;;;26.27;24.17;;;;;;;;;;4942898;29;20475;-95
2021/05/18 01:39:46;;;;;;;25.40;22.90;;;;;;;;;;4962851;29;20441;-92
2021/05/18 01:44:58;;;;;;;26.20;24.00;;;;;;;;;;4960442;29;20400;-94
2021/05/18 01:47:25;;;;;;;25.90;23.80;;;;;;;;;;4959136;29;20446;-95
2021/05/18 01:49:52;;;;;;;26.70;24.30;;;;;;;;;;4959495;29;20450;-95
2021/05/18 01:52:19;;;;;;;27.00;24.30;;;;;;;;;;4960353;29;20538;-94
2021/05/18 01:54:49;;;;;;;27.33;24.37;;;;;;;;;;4960490;29;20417;-94
2021/05/18 01:57:19;;;;;;;27.03;24.83;;;;;;;;;;4961221;29;20426;-95
2021/05/18 01:59:47;;;;;;;28.00;25.37;;;;;;;;;;4958903;29;20486;-96
2021/05/18 02:02:14;;;;;;;25.67;23.43;;;;;;;;;;4959869;29;20505;-95
2021/05/18 02:04:43;;;;;;;26.73;24.43;;;;;;;;;;4959867;29;20412;-95
2021/05/18 02:07:12;;;;;;;28.33;25.45;;;;;;;;;;4958448;29;20796;-96
2021/05/18 02:09:39;;;;;;;27.77;24.80;;;;;;;;;;4962034;29;20210;-94
2021/05/18 02:12:08;;;;;;;27.13;24.33;;;;;;;;;;4957651;28;20512;-94
2021/05/18 02:14:37;;;;;;;25.87;23.67;;;;;;;;;;4960103;29;20439;-94
2021/05/18 02:17:09;;;;;;;28.43;26.13;;;;;;;;;;4957216;29;20476;-95
2021/05/18 02:19:51;;;;;;;27.83;24.90;;;;;;;;;;4957533;29;20925;-94
2021/05/18 02:25:03;;;;;;;27.17;24.60;;;;;;;;;;4956496;29;20446;-95
2021/05/18 02:27:31;;;;;;;28.17;25.63;;;;;;;;;;4957520;29;20447;-95
2021/05/18 02:29:58;;;;;;;25.90;23.20;;;;;;;;;;4957311;29;20446;-94
2021/05/18 02:32:26;;;;;;;28.23;25.70;;;;;;;;;;4956708;29;20438;-94
2021/05/18 02:34:53;;;;;;;27.60;24.93;;;;;;;;;;4940443;29;20450;-95
2021/05/18 02:37:20;;;;;;;26.30;24.20;;;;;;;;;;4940053;29;20443;-96
2021/05/18 02:39:47;;;;;;;26.90;24.60;;;;;;;;;;4957125;29;20444;-95
2021/05/18 02:42:15;;;;;;;25.57;22.87;;;;;;;;;;4956807;29;20465;-96
2021/05/18 02:44:45;;;;;;;27.00;24.60;;;;;;;;;;4956964;29;20469;-94
2021/05/18 02:49:57;;;;;;;27.53;25.00;;;;;;;;;;4956847;29;20796;-94
2021/05/18 02:52:24;;;;;;;27.77;24.87;;;;;;;;;;4956574;29;20451;-95
2021/05/18 02:54:54;;;;;;;27.73;25.00;;;;;;;;;;4956814;29;20451;-94
2021/05/18 02:57:31;;;;;;;28.67;24.87;;;;;;;;;;4956730;29;20438;-94
2021/05/18 03:00:00;;;;;;;27.47;24.73;;;;;;;;;;4956895;29;20438;-95
2021/05/18 03:02:27;;;;;;;27.43;25.03;;;;;;;;;;4956880;29;20484;-95
2021/05/18 03:04:54;;;;;;;28.93;26.00;;;;;;;;;;4957135;29;20443;-96
2021/05/18 03:07:21;;;;;;;28.47;25.90;;;;;;;;;;4939998;29;20450;-95
2021/05/18 03:09:47;;;;;;;27.43;24.90;;;;;;;;;;4957491;29;20442;-95
2021/05/18 03:12:15;;;;;;;27.00;24.93;;;;;;;;;;4957352;28;20448;-94
2021/05/18 03:14:42;;;;;;;26.80;24.10;;;;;;;;;;4956463;29;20454;-95
2021/05/18 03:17:10;;;;;;;26.43;24.17;;;;;;;;;;4956367;29;20655;-95
2021/05/18 03:19:36;;;;;;;27.13;24.73;;;;;;;;;;4957402;29;20516;-95
2021/05/18 03:22:03;;;;;;;27.53;25.13;;;;;;;;;;4957251;28;20443;-95
2021/05/18 03:24:30;;;;;;;28.47;24.80;;;;;;;;;;4962702;29;20510;-95
2021/05/18 03:26:57;;;;;;;28.27;25.67;;;;;;;;;;4963790;28;20460;-95
2021/05/18 03:29:28;;;;;;;28.30;25.60;;;;;;;;;;4963204;28;20458;-94
2021/05/18 03:34:41;;;;;;;30.53;27.90;;;;;;;;;;4962867;28;20396;-94
2021/05/18 03:37:13;;;;;;;28.27;25.67;;;;;;;;;;4962545;28;20460;-94
2021/05/18 03:39:40;;;;;;;27.50;25.30;;;;;;;;;;4962815;28;20450;-94
2021/05/18 03:42:10;;;;;;;29.80;25.97;;;;;;;;;;4962380;28;20443;-94
2021/05/18 03:44:59;;;;;;;33.27;29.33;;;;;;;;;;4962839;29;20464;-95
2021/05/18 03:53:18;;;;;;;27.37;24.63;;;;;;;;;;4962681;28;20413;-95
2021/05/18 03:58:52;;;;;;;26.83;24.23;;;;;;;;;;4962519;29;20800;-89
2021/05/18 04:04:14;;;;;;;28.37;25.77;;;;;;;;;;4963194;29;20444;-87
2021/05/18 04:12:46;;;;;;;27.97;25.50;;;;;;;;;;4903322;29;20468;-86
2021/05/18 04:18:06;;;;;;;30.03;26.97;;;;;;;;;;4890413;29;20427;-87
2021/05/18 04:20:39;;;;;;;28.83;25.80;;;;;;;;;;4889117;29;20497;-87
2021/05/18 04:43:20;;;;;;;30.30;27.27;;;;;;;;;;4887073;29;20552;-84
2021/05/18 04:49:05;;;;;;;29.57;27.00;;;;;;;;;;4919251;28;20397;-84
2021/05/18 04:51:37;;;;;;;30.57;27.87;;;;;;;;;;4919475;29;20552;-84
2021/05/18 04:54:25;;;;;;;30.23;27.83;;;;;;;;;;4919145;29;20440;-85
2021/05/18 04:59:44;;;;;;;30.27;27.60;;;;;;;;;;4919535;29;20983;-88
2021/05/18 05:02:37;;;;;;;31.93;28.67;;;;;;;;;;4929773;29;20519;-83
2021/05/18 05:07:55;;;;;;;30.70;27.67;;;;;;;;;;4958699;29;20479;-88
2021/05/18 05:12:14;;;;;;;31.17;28.10;;;;;;;;;;4958869;29;20525;-87
2021/05/18 05:15:57;;;;;;;30.53;27.73;;;;;;;;;;4958180;29;20995;-89
2021/05/18 05:18:24;;;;;;;28.00;25.60;;;;;;;;;;4958888;29;20470;-87
2021/05/18 05:20:51;;;;;;;30.03;27.57;;;;;;;;;;4958224;29;20919;-87
2021/05/18 05:23:17;;;;;;;30.03;27.43;;;;;;;;;;4958437;29;20462;-88
2021/05/18 05:25:45;;;;;;;30.23;27.23;;;;;;;;;;4958680;29;20435;-87
2021/05/18 05:28:12;;;;;;;29.97;27.03;;;;;;;;;;4966343;29;20496;-87
2021/05/18 05:30:38;;;;;;;29.70;26.77;;;;;;;;;;4958457;29;20435;-86
2021/05/18 05:33:06;;;;;;;28.93;26.50;;;;;;;;;;4958077;29;20414;-88
2021/05/18 05:35:33;;;;;;;29.23;26.27;;;;;;;;;;4958415;29;20566;-91
2021/05/18 05:38:00;;;;;;;31.57;26.17;;;;;;;;;;4958051;29;20455;-91
2021/05/18 05:40:27;;;;;;;30.10;27.13;;;;;;;;;;4958383;29;20449;-90
2021/05/18 05:42:54;;;;;;;30.93;27.90;;;;;;;;;;4957909;29;20921;-90
2021/05/18 05:45:23;;;;;;;31.47;28.53;;;;;;;;;;4958151;28;20438;-91
2021/05/18 05:47:50;;;;;;;32.53;28.07;;;;;;;;;;4941364;29;20455;-89
2021/05/18 05:50:18;;;;;;;31.07;27.90;;;;;;;;;;4958291;29;20418;-89
2021/05/18 05:52:45;;;;;;;30.60;27.87;;;;;;;;;;4957841;29;20443;-89
2021/05/18 05:55:12;;;;;;;33.83;30.90;;;;;;;;;;4958620;29;20458;-89
2021/05/18 05:57:39;;;;;;;33.70;30.00;;;;;;;;;;4957861;29;20464;-89
2021/05/18 06:00:08;;;;;;;33.37;29.97;;;;;;;;;;4958397;29;20462;-89
2021/05/18 06:02:35;;;;;;;29.47;26.67;;;;;;;;;;4960064;29;20409;-89
2021/05/18 06:05:02;;;;;;;30.90;27.93;;;;;;;;;;4940897;29;20459;-89
2021/05/18 06:07:29;;;;;;;34.07;30.60;;;;;;;;;;4957596;29;20421;-89
2021/05/18 06:10:00;;;;;;;32.53;29.40;;;;;;;;;;4957215;29;20444;-90
2021/05/18 06:12:41;;;;;;;31.60;28.40;;;;;;;;;;4957472;28;20486;-92
2021/05/18 06:35:05;;;;;;;33.37;30.50;;;;;;;;;;4957650;29;20426;-88
2021/05/18 06:37:45;;;;;;;34.43;30.73;;;;;;;;;;4940784;29;20980;-88
2021/05/18 06:43:07;;;;;;;36.20;30.70;;;;;;;;;;4959158;29;20426;-89
2021/05/18 06:48:27;;;;;;;33.97;30.80;;;;;;;;;;4898278;29;20478;-89
2021/05/18 06:50:54;;;;;;;33.47;30.53;;;;;;;;;;4897563;29;20809;-87
2021/05/18 06:53:21;;;;;;;35.40;31.80;;;;;;;;;;4882588;29;20465;-87
2021/05/18 06:55:50;;;;;;;34.13;30.90;;;;;;;;;;4897720;29;20492;-90
2021/05/18 06:58:35;;;;;;;32.27;29.23;;;;;;;;;;4897398;29;20923;-88
2021/05/18 07:01:02;;;;;;;32.87;29.87;;;;;;;;;;4897809;29;20476;-88
2021/05/18 07:03:33;;;;;;;34.07;30.80;;;;;;;;;;4897664;29;20427;-90
2021/05/18 07:06:08;;;;;;;34.83;28.80;;;;;;;;;;4898503;29;20433;-89
2021/05/18 07:11:21;;;;;;;33.03;28.70;;;;;;;;;;4899525;29;20530;-89
2021/05/18 07:13:48;;;;;;;31.87;28.93;;;;;;;;;;4899533;29;20503;-89
2021/05/18 07:16:15;;;;;;;31.30;28.50;;;;;;;;;;4898494;29;20484;-88
2021/05/18 07:18:42;;;;;;;31.97;29.27;;;;;;;;;;4900296;29;20550;-88
2021/05/18 07:21:09;;;;;;;32.67;29.67;;;;;;;;;;4898521;29;20421;-86
2021/05/18 07:23:36;;;;;;;34.60;31.10;;;;;;;;;;4918414;29;20855;-91
2021/05/18 07:26:03;;;;;;;34.90;31.70;;;;;;;;;;4943675;29;20425;-83
2021/05/18 07:28:32;;;;;;;34.30;31.10;;;;;;;;;;4961393;29;20441;-87
2021/05/18 07:31:00;;;;;;;35.93;32.20;;;;;;;;;;4961368;29;20918;-94
2021/05/18 07:33:28;;;;;;;36.40;32.60;;;;;;;;;;4960266;29;20453;-89
2021/05/18 07:35:57;;;;;;;40.07;32.87;;;;;;;;;;4941301;29;20482;-90
2021/05/18 07:38:24;;;;;;;39.57;35.37;;;;;;;;;;4957898;29;20452;-89
2021/05/18 07:40:52;;;;;;;38.60;34.77;;;;;;;;;;4959485;29;20418;-89
2021/05/18 07:43:19;;;;;;;41.53;35.20;;;;;;;;;;4941456;29;20410;-91
2021/05/18 07:45:51;;;;;;;40.63;36.80;;;;;;;;;;4944358;29;20426;-91
2021/05/18 07:48:23;;;;;;;43.97;39.50;;;;;;;;;;4973000;28;20458;-90
2021/05/18 07:50:57;;;;;;;45.33;41.00;;;;;;;;;;4954210;29;20428;-89
2021/05/18 07:59:34;;;;;;;42.53;37.97;;;;;;;;;;4958226;29;20413;-89
2021/05/18 08:05:18;;;;;;;41.30;37.33;;;;;;;;;;4956070;29;20432;-85
2021/05/18 08:07:46;;;;;;;41.40;37.30;;;;;;;;;;4957431;29;20435;-82
2021/05/18 08:10:16;;;;;;;44.60;40.07;;;;;;;;;;4959929;28;20439;-88
2021/05/18 08:12:43;;;;;;;41.90;38.10;;;;;;;;;;4960612;28;20562;-86
2021/05/18 08:18:02;;;;;;;41.20;37.00;;;;;;;;;;4959831;29;20418;-87
2021/05/18 08:20:44;;;;;;;43.13;39.03;;;;;;;;;;4962668;29;20453;-88
2021/05/18 10:35:01;;;;;;;37.47;34.40;;;;;;;;;;4958832;29;20428;-86
2021/05/18 10:37:37;;;;;;;38.73;35.53;;;;;;;;;;4960182;29;20585;-86
2021/05/18 10:40:23;;;;;;;38.43;35.43;;;;;;;;;;4959808;29;20505;-87
2021/05/18 10:43:20;;;;;;;38.43;35.43;;;;;;;;;;4967278;29;20475;-87
2021/05/18 10:46:01;;;;;;;38.13;35.13;;;;;;;;;;4900883;29;20456;-87
2021/05/18 10:48:53;;;;;;;38.13;35.13;;;;;;;;;;4899547;29;20460;-86
2021/05/18 10:51:25;;;;;;;35.80;32.60;;;;;;;;;;4900245;29;20477;-87
2021/05/18 10:54:13;;;;;;;36.97;34.17;;;;;;;;;;4899305;29;20439;-89
2021/05/18 10:57:03;;;;;;;33.90;31.30;;;;;;;;;;4899284;29;20826;-83
2021/05/18 10:59:31;;;;;;;32.97;30.43;;;;;;;;;;4898332;29;20424;-84
2021/05/18 11:01:59;;;;;;;33.33;30.73;;;;;;;;;;4899433;29;20784;-83
2021/05/18 11:04:27;;;;;;;31.33;29.13;;;;;;;;;;4900001;29;20476;-82
2021/05/18 11:06:55;;;;;;;29.60;27.50;;;;;;;;;;4900998;29;20467;-83
2021/05/18 11:09:23;;;;;;;30.13;28.17;;;;;;;;;;4898588;29;20425;-84
2021/05/18 11:11:51;;;;;;;29.63;27.57;;;;;;;;;;4899641;29;20480;-84
2021/05/18 11:14:18;;;;;;;31.43;29.13;;;;;;;;;;4900209;29;20436;-83
2021/05/18 11:16:45;;;;;;;32.33;30.13;;;;;;;;;;4899206;29;20483;-84
2021/05/18 11:19:12;;;;;;;33.50;31.10;;;;;;;;;;4911360;29;20430;-84
2021/05/18 11:21:43;;;;;;;31.53;29.27;;;;;;;;;;4956321;29;20429;-83
2021/05/18 11:24:10;;;;;;;29.23;27.33;;;;;;;;;;4939597;29;20436;-84
2021/05/18 11:26:47;;;;;;;29.77;27.87;;;;;;;;;;4959116;29;20422;-84
2021/05/18 11:29:14;;;;;;;32.70;30.40;;;;;;;;;;4957985;29;20414;-83
2021/05/18 11:31:41;;;;;;;29.40;27.47;;;;;;;;;;4959366;29;20545;-84
2021/05/18 11:34:08;;;;;;;32.53;30.10;;;;;;;;;;4958340;29;20440;-84
2021/05/18 11:36:37;;;;;;;30.90;28.80;;;;;;;;;;4957971;29;20461;-83
2021/05/18 11:39:07;;;;;;;30.13;28.10;;;;;;;;;;4957670;29;20445;-84
2021/05/18 11:41:37;;;;;;;29.60;27.70;;;;;;;;;;4958519;29;20451;-84
2021/05/18 11:44:05;;;;;;;28.97;26.87;;;;;;;;;;4960900;28;20467;-83
2021/05/18 11:46:34;;;;;;;27.80;26.00;;;;;;;;;;4944326;29;20929;-84
2021/05/18 11:49:02;;;;;;;28.67;26.80;;;;;;;;;;4960965;29;20456;-84
2021/05/18 11:51:29;;;;;;;27.20;25.33;;;;;;;;;;4959565;29;20916;-82
2021/05/18 11:54:03;;;;;;;29.33;27.40;;;;;;;;;;4959783;29;20475;-84
2021/05/18 11:56:31;;;;;;;29.03;27.10;;;;;;;;;;4959597;29;20454;-83
2021/05/18 11:59:00;;;;;;;30.13;27.87;;;;;;;;;;4959783;29;20907;-84
2021/05/18 12:01:27;;;;;;;28.03;26.23;;;;;;;;;;4959686;29;20424;-84
2021/05/18 12:04:04;;;;;;;29.43;27.40;;;;;;;;;;4960015;29;20435;-83
2021/05/18 12:06:33;;;;;;;29.80;27.83;;;;;;;;;;4960736;29;20444;-83
2021/05/18 12:09:00;;;;;;;30.40;28.03;;;;;;;;;;4961477;29;20444;-83
2021/05/18 12:11:27;;;;;;;28.23;26.23;;;;;;;;;;4960100;28;20956;-83
2021/05/18 12:13:55;;;;;;;29.70;27.70;;;;;;;;;;4959046;29;20423;-83
2021/05/18 12:16:23;;;;;;;29.73;27.83;;;;;;;;;;4958906;29;20478;-83
2021/05/18 12:18:53;;;;;;;29.27;27.20;;;;;;;;;;4959255;29;20423;-83
2021/05/18 12:21:21;;;;;;;30.17;28.07;;;;;;;;;;4958382;29;20965;-79
2021/05/18 12:24:03;;;;;;;30.00;27.93;;;;;;;;;;4960068;29;20508;-81
2021/05/18 12:26:30;;;;;;;27.10;25.30;;;;;;;;;;4962268;29;21093;-85
2021/05/18 12:29:06;;;;;;;27.40;25.60;;;;;;;;;;4962971;29;20419;-81
2021/05/18 12:31:34;;;;;;;27.83;25.93;;;;;;;;;;4966228;29;20881;-82
2021/05/18 12:34:01;;;;;;;27.23;25.20;;;;;;;;;;4970527;29;20471;-83
2021/05/18 12:36:29;;;;;;;26.57;24.87;;;;;;;;;;4963100;29;20454;-83
2021/05/18 12:39:05;;;;;;;27.20;25.40;;;;;;;;;;4959617;29;20444;-83
2021/05/18 12:41:47;;;;;;;30.87;28.67;;;;;;;;;;4960611;29;20928;-83
2021/05/18 12:44:15;;;;;;;29.87;27.77;;;;;;;;;;4943815;29;20973;-83
2021/05/18 12:46:52;;;;;;;32.30;29.97;;;;;;;;;;4960012;29;20893;-83
2021/05/18 12:49:26;;;;;;;31.50;29.40;;;;;;;;;;4959699;29;20813;-90
2021/05/18 12:52:09;;;;;;;33.03;30.70;;;;;;;;;;4960818;29;21041;-82
2021/05/18 12:54:40;;;;;;;32.37;29.90;;;;;;;;;;4958365;28;20439;-84
2021/05/18 12:57:07;;;;;;;31.30;28.97;;;;;;;;;;4957849;29;20461;-83
2021/05/18 12:59:35;;;;;;;30.07;27.97;;;;;;;;;;4960184;29;20422;-84
2021/05/18 13:02:02;;;;;;;28.27;26.40;;;;;;;;;;4960349;29;20467;-85
2021/05/18 13:04:37;;;;;;;29.10;26.73;;;;;;;;;;4959868;29;20443;-84
2021/05/18 13:07:14;;;;;;;28.27;26.37;;;;;;;;;;4960412;29;20442;-85
2021/05/18 13:09:42;;;;;;;27.60;25.80;;;;;;;;;;4951577;28;20521;-85
2021/05/18 13:12:12;;;;;;;27.93;26.13;;;;;;;;;;4965108;29;20451;-85
2021/05/18 13:14:56;;;;;;;26.80;25.10;;;;;;;;;;4964494;29;20443;-85
2021/05/18 13:17:23;;;;;;;28.07;26.10;;;;;;;;;;4963317;29;20979;-84
2021/05/18 13:19:57;;;;;;;28.30;26.50;;;;;;;;;;4972447;29;20425;-84
2021/05/18 13:22:24;;;;;;;27.50;25.60;;;;;;;;;;4968866;29;20790;-79
2021/05/18 13:27:32;;;;;;;29.23;26.87;;;;;;;;;;4927292;29;20417;-93
2021/05/18 13:30:00;;;;;;;27.27;25.37;;;;;;;;;;4958585;29;20445;-84
2021/05/18 13:32:27;;;;;;;25.30;23.70;;;;;;;;;;4958520;29;20415;-85
2021/05/18 13:34:54;;;;;;;24.37;22.97;;;;;;;;;;4957936;29;20449;-84
2021/05/18 13:37:21;;;;;;;24.57;23.07;;;;;;;;;;4957518;29;20983;-84
2021/05/18 13:39:48;;;;;;;24.43;23.03;;;;;;;;;;4957713;29;20911;-83
2021/05/18 13:42:15;;;;;;;24.47;23.07;;;;;;;;;;4957722;29;20456;-87
2021/05/18 13:44:42;;;;;;;23.43;21.80;;;;;;;;;;4958059;29;20793;-88
2021/05/18 13:47:09;;;;;;;26.03;24.37;;;;;;;;;;4958074;29;20432;-86
2021/05/18 13:49:36;;;;;;;23.53;22.07;;;;;;;;;;4957857;29;20426;-82
2021/05/18 13:52:03;;;;;;;24.07;22.73;;;;;;;;;;4957545;29;20447;-95
2021/05/18 13:54:30;;;;;;;23.10;21.80;;;;;;;;;;4959269;29;20422;-83
2021/05/18 13:56:59;;;;;;;24.83;23.33;;;;;;;;;;4957179;29;20450;-83
2021/05/18 13:59:25;;;;;;;25.87;24.27;;;;;;;;;;4957550;29;20441;-84
2021/05/18 14:01:52;;;;;;;24.30;22.80;;;;;;;;;;4957513;29;20819;-83
2021/05/18 14:04:20;;;;;;;25.07;23.53;;;;;;;;;;4958155;29;20418;-84
2021/05/18 14:07:01;;;;;;;23.80;22.40;;;;;;;;;;4958756;28;20440;-84
2021/05/18 14:09:28;;;;;;;24.03;22.63;;;;;;;;;;4940033;29;20535;-84
2021/05/18 14:11:55;;;;;;;22.93;21.63;;;;;;;;;;4957528;29;20499;-84
2021/05/18 14:14:22;;;;;;;21.13;20.00;;;;;;;;;;4957730;29;20444;-84
2021/05/18 14:16:49;;;;;;;21.37;20.27;;;;;;;;;;4957394;29;20481;-84
2021/05/18 14:19:17;;;;;;;20.53;19.23;;;;;;;;;;4963545;29;20422;-83
2021/05/18 14:21:45;;;;;;;21.80;20.60;;;;;;;;;;4962882;29;20932;-84
2021/05/18 14:24:19;;;;;;;21.20;20.10;;;;;;;;;;4942270;29;20440;-83
2021/05/18 14:26:45;;;;;;;21.40;20.10;;;;;;;;;;4961888;29;21015;-82
2021/05/18 14:29:12;;;;;;;21.20;20.00;;;;;;;;;;4959683;29;20452;-83
2021/05/18 14:31:39;;;;;;;21.60;20.50;;;;;;;;;;4960063;29;20779;-83
2021/05/18 14:34:06;;;;;;;22.60;21.30;;;;;;;;;;4964385;29;20457;-83
2021/05/18 14:36:33;;;;;;;22.77;21.47;;;;;;;;;;4973752;29;20461;-83
2021/05/18 14:39:03;;;;;;;22.90;21.70;;;;;;;;;;4953159;29;20434;-83
2021/05/18 14:44:14;;;;;;;23.73;22.43;;;;;;;;;;4930407;29;20417;-83
2021/05/18 14:46:48;;;;;;;22.37;21.07;;;;;;;;;;4957056;29;20539;-83
2021/05/18 14:54:59;;;;;;;23.27;21.90;;;;;;;;;;4959035;29;20489;-82
2021/05/18 14:57:26;;;;;;;23.83;22.43;;;;;;;;;;4958534;29;20464;-83
2021/05/18 14:59:53;;;;;;;22.40;21.10;;;;;;;;;;4957524;29;20416;-83
2021/05/18 15:02:20;;;;;;;25.00;23.10;;;;;;;;;;4962051;29;20420;-83
2021/05/18 15:04:47;;;;;;;23.27;21.97;;;;;;;;;;4964902;29;20449;-83
2021/05/18 15:07:14;;;;;;;22.77;21.47;;;;;;;;;;4961969;29;20470;-83
2021/05/18 15:09:41;;;;;;;23.13;21.83;;;;;;;;;;4975741;28;20469;-83
2021/05/18 15:12:10;;;;;;;23.63;22.13;;;;;;;;;;4961823;29;20435;-83
2021/05/18 15:14:37;;;;;;;23.40;22.10;;;;;;;;;;4961472;29;20432;-83
2021/05/18 15:17:04;;;;;;;24.20;22.70;;;;;;;;;;4961112;29;20513;-83
2021/05/18 15:19:31;;;;;;;24.67;23.27;;;;;;;;;;4960727;28;20798;-83
2021/05/18 15:21:59;;;;;;;24.10;22.70;;;;;;;;;;4960615;29;20913;-83
2021/05/18 15:24:26;;;;;;;25.50;24.00;;;;;;;;;;4961713;29;20429;-83
2021/05/18 15:26:53;;;;;;;23.90;22.50;;;;;;;;;;4944669;29;20433;-83
2021/05/18 15:29:21;;;;;;;23.87;22.50;;;;;;;;;;4961952;29;20447;-85
2021/05/18 15:31:48;;;;;;;23.77;22.47;;;;;;;;;;4961992;29;20530;-83
2021/05/18 15:34:15;;;;;;;23.77;22.47;;;;;;;;;;4962160;29;20463;-84
2021/05/18 15:36:54;;;;;;;23.57;22.27;;;;;;;;;;4963069;29;20502;-84
2021/05/18 15:39:24;;;;;;;24.17;22.67;;;;;;;;;;4947482;29;20492;-83
2021/05/18 15:41:51;;;;;;;24.47;23.07;;;;;;;;;;4962662;29;20451;-84
2021/05/18 15:44:18;;;;;;;24.63;23.33;;;;;;;;;;4958161;29;20499;-87
2021/05/18 15:46:45;;;;;;;24.53;23.23;;;;;;;;;;4957624;29;20461;-83
2021/05/18 15:49:13;;;;;;;25.37;24.00;;;;;;;;;;4959854;29;20901;-89
2021/05/18 15:51:40;;;;;;;25.37;23.87;;;;;;;;;;4961291;29;20442;-81
2021/05/18 15:54:08;;;;;;;25.80;24.40;;;;;;;;;;4960526;29;20445;-82
2021/05/18 15:56:35;;;;;;;25.17;23.57;;;;;;;;;;4959694;29;20474;-82
2021/05/18 15:59:05;;;;;;;24.53;22.93;;;;;;;;;;4959125;29;20915;-82
2021/05/18 16:01:32;;;;;;;23.57;22.17;;;;;;;;;;4942851;29;20769;-82
2021/05/18 16:04:00;;;;;;;24.70;23.23;;;;;;;;;;4957809;29;20445;-81
2021/05/18 16:06:31;;;;;;;25.13;23.63;;;;;;;;;;4958668;29;20837;-82
2021/05/18 16:08:59;;;;;;;24.97;23.57;;;;;;;;;;4956991;29;20446;-83
2021/05/18 16:11:26;;;;;;;23.30;22.00;;;;;;;;;;4957785;28;20483;-83
2021/05/18 16:13:53;;;;;;;24.70;23.30;;;;;;;;;;4959820;29;20825;-85
2021/05/18 16:16:21;;;;;;;24.10;22.70;;;;;;;;;;4962016;29;20502;-83
2021/05/18 16:18:49;;;;;;;23.73;22.43;;;;;;;;;;4967080;29;20420;-83
2021/05/18 16:21:18;;;;;;;23.80;22.40;;;;;;;;;;4966748;29;20435;-84
2021/05/18 16:23:47;;;;;;;24.97;23.57;;;;;;;;;;4963963;29;20419;-82
2021/05/18 16:26:14;;;;;;;24.50;23.10;;;;;;;;;;4962550;29;20414;-83
2021/05/18 16:28:41;;;;;;;25.27;23.87;;;;;;;;;;4962265;29;20439;-85
2021/05/18 16:31:08;;;;;;;24.50;23.10;;;;;;;;;;4961617;28;20416;-83
2021/05/18 16:33:36;;;;;;;23.07;21.87;;;;;;;;;;4962962;29;20423;-81
2021/05/18 16:36:03;;;;;;;22.90;21.70;;;;;;;;;;4962466;29;20440;-79
2021/05/18 16:38:31;;;;;;;23.23;22.03;;;;;;;;;;4964672;29;20483;-80
2021/05/18 16:40:58;;;;;;;22.87;21.57;;;;;;;;;;4963145;29;20443;-81
2021/05/18 16:43:27;;;;;;;22.10;20.90;;;;;;;;;;4964146;29;20440;-80
2021/05/18 16:45:55;;;;;;;22.20;21.00;;;;;;;;;;4958150;29;20913;-81
2021/05/18 16:48:26;;;;;;;22.70;21.50;;;;;;;;;;4956811;28;20475;-83
2021/05/18 16:50:53;;;;;;;21.97;20.77;;;;;;;;;;4960848;28;20960;-83
2021/05/18 16:53:20;;;;;;;21.60;20.40;;;;;;;;;;4955924;28;20453;-83
2021/05/18 16:55:48;;;;;;;21.60;20.50;;;;;;;;;;4958583;28;20468;-82
2021/05/18 16:58:15;;;;;;;22.83;21.53;;;;;;;;;;4965783;28;20519;-83
2021/05/18 17:00:43;;;;;;;22.87;21.40;;;;;;;;;;4967231;28;20421;-83
2021/05/18 17:03:10;;;;;;;21.60;20.43;;;;;;;;;;4970141;28;20489;-84
2021/05/18 17:05:37;;;;;;;22.40;20.80;;;;;;;;;;5027270;23;20539;-83
2021/05/18 17:08:04;;;;;;;22.63;21.33;;;;;;;;;;4984460;28;20926;-84
2021/05/18 17:10:31;;;;;;;22.70;21.40;;;;;;;;;;4998604;28;20488;-86
2021/05/18 17:13:02;;;;;;;22.47;21.27;;;;;;;;;;4995104;28;20486;-85
2021/05/18 17:15:33;;;;;;;22.00;20.70;;;;;;;;;;4993066;28;20429;-84
2021/05/18 17:18:05;;;;;;;22.80;21.47;;;;;;;;;;4996601;28;20467;-85
2021/05/18 17:20:36;;;;;;;22.70;21.50;;;;;;;;;;4995255;28;20470;-85
2021/05/18 17:23:05;;;;;;;22.87;21.67;;;;;;;;;;4994351;28;20484;-85
2021/05/18 17:25:32;;;;;;;23.30;22.00;;;;;;;;;;4992983;28;20438;-86
2021/05/18 17:27:59;;;;;;;22.20;20.90;;;;;;;;;;4989570;28;20458;-86
2021/05/18 17:30:27;;;;;;;22.70;21.30;;;;;;;;;;4990890;28;20447;-86
2021/05/18 17:32:54;;;;;;;23.50;22.20;;;;;;;;;;4972227;28;20477;-87
2021/05/18 17:35:23;;;;;;;22.63;21.37;;;;;;;;;;4990317;28;20930;-86
2021/05/18 17:37:50;;;;;;;22.20;21.00;;;;;;;;;;4998114;28;20474;-86
2021/05/18 17:40:21;;;;;;;22.50;21.30;;;;;;;;;;5003930;28;20447;-87
2021/05/18 17:43:20;;;;;;;22.90;21.50;;;;;;;;;;5009349;28;20439;-86
2021/05/18 17:46:15;;;;;;;21.47;20.27;;;;;;;;;;5003399;28;20509;-86
2021/05/18 17:48:50;;;;;;;22.00;20.80;;;;;;;;;;5172924;23;20477;-86
2021/05/18 17:51:23;;;;;;;22.07;20.87;;;;;;;;;;5021639;28;20436;-85
2021/05/18 17:53:52;;;;;;;21.83;20.73;;;;;;;;;;5030092;28;20431;-85
2021/05/18 17:56:20;;;;;;;22.57;21.37;;;;;;;;;;5018490;28;20441;-86
2021/05/18 17:58:49;;;;;;;21.63;20.43;;;;;;;;;;5026955;23;20426;-85
2021/05/18 18:01:23;;;;;;;22.20;21.00;;;;;;;;;;5007981;28;20452;-87
2021/05/18 18:03:59;;;;;;;21.60;20.40;;;;;;;;;;5026336;28;20449;-86
2021/05/18 18:06:26;;;;;;;21.93;20.73;;;;;;;;;;5033074;28;20410;-85
2021/05/18 18:09:00;;;;;;;22.97;21.67;;;;;;;;;;5031263;28;20430;-87
2021/05/18 18:11:27;;;;;;;24.00;22.60;;;;;;;;;;5054585;28;20464;-84
2021/05/18 18:13:55;;;;;;;23.00;21.80;;;;;;;;;;5044298;28;20560;-86
2021/05/18 18:16:22;;;;;;;22.10;20.90;;;;;;;;;;5046570;28;20459;-85
2021/05/18 18:18:51;;;;;;;22.70;21.30;;;;;;;;;;5048589;28;20889;-86
2021/05/18 18:21:20;;;;;;;23.20;21.90;;;;;;;;;;5047436;28;20452;-85
2021/05/18 18:23:48;;;;;;;22.03;20.83;;;;;;;;;;5043746;28;20412;-89
2021/05/18 18:26:15;;;;;;;22.60;21.30;;;;;;;;;;5046638;28;20426;-87
2021/05/18 18:28:43;;;;;;;21.50;20.30;;;;;;;;;;5041296;28;20411;-88
2021/05/18 18:31:10;;;;;;;21.97;20.60;;;;;;;;;;5043443;28;20423;-89
2021/05/18 18:33:37;;;;;;;22.47;21.13;;;;;;;;;;5043173;28;20495;-95
2021/05/18 18:36:08;;;;;;;21.90;20.63;;;;;;;;;;5034725;28;20438;-85
2021/05/18 18:38:35;;;;;;;22.83;21.33;;;;;;;;;;5033550;28;20477;-86
2021/05/18 18:41:02;;;;;;;22.33;21.03;;;;;;;;;;5032325;28;20486;-85